Time;durP1;ratioP1;P1;durP2;ratioP2;P2;SDS_P1;SDS_P2;PMS_P1;PMS_P2;Temp;Humidity;BMP_temperature;BMP_pressure;BME280_temperature;BME280_humidity;BME280_pressure;Samples;Min_cycle;Max_cycle;Signal;HPM_P1;HPM_P2
2023/07/30 00:01:38;;;;;;;1.73;1.10;;;;;;;19.17;100.00;99794.31;5016457;28;20338;-75
2023/07/30 00:04:04;;;;;;;1.60;1.00;;;;;;;19.15;100.00;99800.56;5016124;28;20240;-77
2023/07/30 00:06:29;;;;;;;2.13;1.60;;;;;;;19.09;100.00;99798.25;5020982;28;20271;-76
2023/07/30 00:08:54;;;;;;;2.47;1.63;;;;;;;19.05;100.00;99797.59;5018799;28;20193;-76
2023/07/30 00:11:19;;;;;;;2.10;1.70;;;;;;;19.00;100.00;99789.97;5011187;28;20219;-76
2023/07/30 00:13:45;;;;;;;2.33;1.83;;;;;;;18.99;100.00;99797.88;5010719;28;20689;-76
2023/07/30 00:16:10;;;;;;;2.43;2.17;;;;;;;18.96;100.00;99798.06;5011631;28;20190;-76
2023/07/30 00:18:35;;;;;;;1.83;1.70;;;;;;;18.96;100.00;99792.84;5012834;28;20190;-76
2023/07/30 00:21:01;;;;;;;2.57;2.30;;;;;;;18.93;100.00;99787.72;5014366;28;20222;-76
2023/07/30 00:23:26;;;;;;;2.77;2.43;;;;;;;18.91;100.00;99789.56;5014684;28;20214;-75
2023/07/30 00:25:51;;;;;;;2.67;2.47;;;;;;;18.89;100.00;99798.34;5009230;28;20198;-75
2023/07/30 00:28:17;;;;;;;3.30;2.23;;;;;;;18.89;100.00;99793.09;5012012;28;20202;-76
2023/07/30 00:30:42;;;;;;;2.57;2.23;;;;;;;18.84;100.00;99797.72;5010158;28;20215;-75
2023/07/30 00:33:07;;;;;;;2.40;2.20;;;;;;;18.83;100.00;99808.31;5011181;28;20217;-76
2023/07/30 00:35:33;;;;;;;2.60;2.40;;;;;;;18.79;100.00;99812.88;5011747;28;20874;-76
2023/07/30 00:37:58;;;;;;;2.40;2.20;;;;;;;18.78;100.00;99810.31;5012463;28;20205;-76
2023/07/30 00:40:23;;;;;;;2.07;1.93;;;;;;;18.78;100.00;99805.94;5010996;28;20688;-76
2023/07/30 00:42:48;;;;;;;2.17;2.00;;;;;;;18.79;100.00;99809.38;5018471;28;20212;-76
2023/07/30 00:45:14;;;;;;;1.90;1.80;;;;;;;18.79;100.00;99817.25;5008825;28;20703;-76
2023/07/30 00:47:40;;;;;;;3.97;2.53;;;;;;;18.79;100.00;99817.25;5009988;28;20199;-76
2023/07/30 00:50:07;;;;;;;2.23;1.97;;;;;;;18.74;100.00;99817.47;5013744;28;20995;-75
2023/07/30 00:52:33;;;;;;;2.27;2.10;;;;;;;18.71;100.00;99828.13;5008232;28;20258;-76
2023/07/30 00:55:02;;;;;;;4.30;2.23;;;;;;;18.68;100.00;99820.44;5011684;28;20186;-76
2023/07/30 00:57:27;;;;;;;2.53;2.33;;;;;;;18.66;100.00;99823.09;5011144;28;20192;-76
2023/07/30 00:59:53;;;;;;;2.57;2.37;;;;;;;18.65;100.00;99823.19;5012961;28;20176;-76
2023/07/30 01:02:19;;;;;;;2.20;2.00;;;;;;;18.64;100.00;99824.94;5015884;28;20206;-76
2023/07/30 01:04:45;;;;;;;2.60;2.40;;;;;;;18.65;100.00;99826.66;5010216;28;20739;-76
2023/07/30 01:07:11;;;;;;;2.47;2.27;;;;;;;18.65;100.00;99820.56;5010871;28;20369;-76
2023/07/30 01:09:36;;;;;;;2.40;2.20;;;;;;;18.64;100.00;99830.19;5011579;28;20544;-76
2023/07/30 01:12:04;;;;;;;2.30;2.20;;;;;;;18.65;100.00;99825.81;5012184;28;20216;-76
2023/07/30 01:14:30;;;;;;;2.43;2.23;;;;;;;18.64;100.00;99835.44;5010522;28;20194;-75
2023/07/30 01:16:56;;;;;;;2.57;2.10;;;;;;;18.67;100.00;99834.47;5011148;28;20193;-76
2023/07/30 01:19:21;;;;;;;2.00;1.90;;;;;;;18.68;100.00;99828.28;5011177;28;20662;-76
2023/07/30 01:21:46;;;;;;;2.63;2.10;;;;;;;18.68;100.00;99837.00;5010751;28;20217;-75
2023/07/30 01:24:12;;;;;;;1.90;1.80;;;;;;;18.69;100.00;99841.31;5022126;28;20192;-76
2023/07/30 01:26:43;;;;;;;2.00;1.80;;;;;;;18.72;100.00;99843.78;5021792;28;20188;-76
2023/07/30 01:29:40;;;;;;;1.93;1.80;;;;;;;18.76;100.00;99844.47;5012740;28;20252;-76
2023/07/30 01:32:08;;;;;;;2.07;1.90;;;;;;;18.80;100.00;99845.16;5010800;28;20215;-75
2023/07/30 01:34:36;;;;;;;2.00;1.90;;;;;;;18.83;100.00;99830.09;5010332;28;20255;-76
2023/07/30 01:37:04;;;;;;;3.67;2.40;;;;;;;18.86;100.00;99837.00;5012032;28;20340;-76
2023/07/30 01:39:33;;;;;;;2.10;1.90;;;;;;;18.89;100.00;99840.28;5010887;28;20198;-76
2023/07/30 01:41:59;;;;;;;2.40;2.20;;;;;;;18.89;100.00;99834.22;5009972;28;20230;-75
2023/07/30 01:44:24;;;;;;;2.43;2.07;;;;;;;18.90;100.00;99835.91;5012748;28;20756;-76
2023/07/30 01:46:49;;;;;;;2.20;2.10;;;;;;;18.93;100.00;99840.97;5013828;28;20202;-76
2023/07/30 01:49:15;;;;;;;2.07;1.97;;;;;;;18.94;100.00;99847.09;5010247;28;20698;-76
2023/07/30 01:51:40;;;;;;;2.80;2.20;;;;;;;18.95;100.00;99849.66;5009874;28;20219;-76
2023/07/30 01:54:05;;;;;;;2.00;1.90;;;;;;;18.96;100.00;99856.59;5017949;28;20290;-76
2023/07/30 01:56:30;;;;;;;2.13;1.97;;;;;;;18.98;100.00;99861.78;5012799;28;20218;-76
2023/07/30 01:58:56;;;;;;;2.73;2.37;;;;;;;18.97;100.00;99857.47;5011140;28;20665;-76
2023/07/30 02:01:22;;;;;;;2.50;2.30;;;;;;;18.96;100.00;99847.91;5015462;28;20272;-76
2023/07/30 02:03:47;;;;;;;2.87;2.20;;;;;;;18.96;100.00;99853.13;5008635;28;20261;-76
2023/07/30 02:06:12;;;;;;;2.47;2.27;;;;;;;18.95;100.00;99847.03;5018389;28;20191;-76
2023/07/30 02:08:38;;;;;;;2.70;2.00;;;;;;;18.95;100.00;99840.94;5010962;28;20182;-75
2023/07/30 02:11:03;;;;;;;2.77;2.57;;;;;;;18.96;100.00;99846.09;5011670;28;20261;-76
2023/07/30 02:13:28;;;;;;;2.90;2.70;;;;;;;18.97;100.00;99841.72;5023661;28;20724;-76
2023/07/30 02:15:54;;;;;;;3.17;2.70;;;;;;;18.95;100.00;99838.34;5008023;28;20191;-76
2023/07/30 02:18:19;;;;;;;3.00;2.67;;;;;;;18.92;100.00;99838.44;5006522;28;20190;-75
2023/07/30 02:20:45;;;;;;;2.93;2.73;;;;;;;18.91;100.00;99839.38;5008077;28;20209;-76
2023/07/30 02:23:10;;;;;;;2.87;2.67;;;;;;;18.88;100.00;99829.91;5010371;28;20637;-75
2023/07/30 02:25:35;;;;;;;3.67;2.70;;;;;;;18.86;100.00;99835.19;5010025;28;20290;-75
2023/07/30 02:28:04;;;;;;;3.20;2.97;;;;;;;18.84;100.00;99844.91;5013028;28;20196;-76
2023/07/30 02:30:29;;;;;;;2.93;2.63;;;;;;;18.84;100.00;99830.97;5007657;28;20204;-76
2023/07/30 02:32:54;;;;;;;3.53;3.13;;;;;;;18.83;100.00;99829.28;5013180;28;20194;-76
2023/07/30 02:35:20;;;;;;;3.50;3.20;;;;;;;18.82;100.00;99833.69;5008099;28;20197;-76
2023/07/30 02:37:45;;;;;;;3.77;3.27;;;;;;;18.83;100.00;99842.38;5007830;28;20203;-75
2023/07/30 02:40:11;;;;;;;2.90;2.70;;;;;;;18.84;100.00;99841.47;5010415;28;20612;-76
2023/07/30 02:42:36;;;;;;;3.07;2.87;;;;;;;18.83;100.00;99835.34;5013943;28;20219;-77
2023/07/30 02:45:01;;;;;;;3.80;3.50;;;;;;;18.84;100.00;99837.06;5008943;28;20199;-76
2023/07/30 02:47:27;;;;;;;3.97;3.67;;;;;;;18.84;100.00;99844.91;5009344;28;20201;-76
2023/07/30 02:49:56;;;;;;;4.07;3.77;;;;;;;18.86;100.00;99840.44;5011733;28;20684;-76
2023/07/30 02:52:21;;;;;;;4.60;4.10;;;;;;;18.85;100.00;99841.38;5009258;28;20239;-76
2023/07/30 02:54:46;;;;;;;3.30;3.10;;;;;;;18.86;100.00;99835.19;5006466;28;20195;-76
2023/07/30 02:57:12;;;;;;;4.20;3.80;;;;;;;18.88;100.00;99843.84;5009040;28;20222;-76
2023/07/30 02:59:38;;;;;;;4.93;4.20;;;;;;;18.89;100.00;99857.81;5007446;28;20193;-76
2023/07/30 03:02:06;;;;;;;4.77;4.37;;;;;;;18.93;100.00;99854.09;5011263;28;20225;-76
2023/07/30 03:04:32;;;;;;;4.50;4.10;;;;;;;18.93;100.00;99858.50;5005863;28;20229;-76
2023/07/30 03:06:57;;;;;;;4.53;4.13;;;;;;;18.93;100.00;99861.13;5005906;28;20278;-76
2023/07/30 03:09:23;;;;;;;4.57;4.17;;;;;;;18.91;100.00;99865.59;5007401;28;20728;-77
2023/07/30 03:11:51;;;;;;;3.70;3.40;;;;;;;18.88;100.00;99864.81;5010544;28;20208;-77
2023/07/30 03:14:20;;;;;;;3.00;2.73;;;;;;;18.87;100.00;99868.34;5022722;28;20191;-77
2023/07/30 03:16:48;;;;;;;3.40;3.13;;;;;;;18.88;100.00;99863.97;5012045;28;20191;-76
2023/07/30 03:19:14;;;;;;;3.23;3.03;;;;;;;18.86;100.00;99866.66;5011088;28;20196;-76
2023/07/30 03:21:40;;;;;;;4.27;3.50;;;;;;;18.87;100.00;99865.75;5022493;28;20206;-76
2023/07/30 03:24:10;;;;;;;3.90;3.60;;;;;;;18.89;100.00;99868.31;5029333;28;20557;-76
2023/07/30 03:26:35;;;;;;;4.30;3.87;;;;;;;18.92;100.00;99872.53;5010952;28;20312;-76
2023/07/30 03:29:01;;;;;;;5.43;3.57;;;;;;;18.91;100.00;99882.16;5011630;28;20655;-76
2023/07/30 03:31:28;;;;;;;3.43;3.20;;;;;;;18.93;100.00;99887.34;5008361;28;20230;-77
2023/07/30 03:33:53;;;;;;;2.97;2.77;;;;;;;18.93;100.00;99887.34;5009880;28;20180;-76
2023/07/30 03:36:19;;;;;;;2.80;2.60;;;;;;;18.91;100.00;99890.03;5014827;28;20210;-76
2023/07/30 03:38:44;;;;;;;2.73;2.20;;;;;;;18.86;100.00;99881.56;5016907;28;20342;-76
2023/07/30 03:41:10;;;;;;;3.20;2.27;;;;;;;18.83;100.00;99893.03;5015358;28;20218;-77
2023/07/30 03:43:36;;;;;;;2.20;2.00;;;;;;;18.80;100.00;99893.19;5016172;28;20202;-77
2023/07/30 03:46:01;;;;;;;2.50;2.30;;;;;;;18.79;100.00;99902.00;5011548;28;20245;-76
2023/07/30 03:48:27;;;;;;;2.90;2.50;;;;;;;18.78;100.00;99897.66;5013970;28;20197;-76
2023/07/30 03:50:53;;;;;;;2.77;2.57;;;;;;;18.77;100.00;99902.97;5018372;28;20593;-76
2023/07/30 03:53:19;;;;;;;2.60;2.17;;;;;;;18.78;100.00;99899.44;5015497;28;20195;-76
2023/07/30 03:55:44;;;;;;;2.70;2.50;;;;;;;18.78;100.00;99921.25;5016880;28;20729;-76
2023/07/30 03:58:09;;;;;;;2.47;2.27;;;;;;;18.79;100.00;99928.22;5011012;28;20449;-76
2023/07/30 04:00:35;;;;;;;2.87;2.60;;;;;;;18.81;100.00;99942.09;5014767;28;20190;-77
2023/07/30 04:03:00;;;;;;;2.70;2.50;;;;;;;18.82;100.00;99940.31;5017190;28;20586;-76
2023/07/30 04:05:25;;;;;;;3.33;2.80;;;;;;;18.82;100.00;99920.19;5015218;28;20998;-76
2023/07/30 04:07:51;;;;;;;2.80;2.50;;;;;;;18.79;100.00;99922.09;5016676;28;20199;-77
2023/07/30 04:10:16;;;;;;;2.60;2.40;;;;;;;18.75;100.00;99913.53;5012856;28;20232;-76
2023/07/30 04:12:41;;;;;;;4.13;2.47;;;;;;;18.71;100.00;99907.63;5011601;28;20185;-76
2023/07/30 04:15:07;;;;;;;3.40;2.50;;;;;;;18.69;100.00;99913.81;5011941;28;20552;-76
2023/07/30 04:17:33;;;;;;;2.60;2.40;;;;;;;18.64;100.00;99900.97;5019180;28;20573;-76
2023/07/30 04:19:58;;;;;;;2.53;2.33;;;;;;;18.63;100.00;99901.88;5011828;28;20743;-77
2023/07/30 04:22:24;;;;;;;3.03;2.70;;;;;;;18.61;100.00;99902.88;5012626;28;20295;-76
2023/07/30 04:24:50;;;;;;;2.40;2.20;;;;;;;18.60;100.00;99912.53;5013127;28;20227;-76
2023/07/30 04:27:18;;;;;;;2.03;1.93;;;;;;;18.59;100.00;99916.91;5011750;28;20201;-76
2023/07/30 04:29:43;;;;;;;2.40;2.20;;;;;;;18.59;100.00;99921.31;5014115;28;20222;-77
2023/07/30 04:32:12;;;;;;;3.27;2.40;;;;;;;18.56;100.00;99926.69;5013292;28;20245;-76
2023/07/30 04:34:37;;;;;;;2.40;2.20;;;;;;;18.45;100.00;99929.81;5012317;28;20193;-76
2023/07/30 04:37:03;;;;;;;2.33;2.13;;;;;;;18.38;100.00;99929.28;5013397;28;20643;-76
2023/07/30 04:39:31;;;;;;;2.23;1.87;;;;;;;18.38;100.00;99931.88;5009473;28;20190;-77
2023/07/30 04:41:57;;;;;;;2.37;2.17;;;;;;;18.36;100.00;99931.09;5009937;28;20227;-76
2023/07/30 04:44:22;;;;;;;2.30;2.10;;;;;;;18.39;100.00;99932.72;5013441;28;20221;-76
2023/07/30 04:46:47;;;;;;;2.60;2.40;;;;;;;18.42;100.00;99928.22;5014058;28;20276;-76
2023/07/30 04:49:12;;;;;;;2.43;2.23;;;;;;;18.47;100.00;99932.38;5015705;28;20201;-76
2023/07/30 04:51:38;;;;;;;2.20;2.00;;;;;;;18.51;100.00;99932.16;5012396;28;20214;-76
2023/07/30 04:54:03;;;;;;;2.47;2.27;;;;;;;18.55;100.00;99925.84;5010602;28;20210;-76
2023/07/30 04:56:29;;;;;;;3.77;2.27;;;;;;;18.59;100.00;99935.25;5007657;28;20288;-76
2023/07/30 04:58:54;;;;;;;2.27;2.07;;;;;;;18.64;100.00;99931.56;5008123;28;20226;-76
2023/07/30 05:01:20;;;;;;;2.10;2.00;;;;;;;18.68;100.00;99936.59;5010855;28;20975;-76
2023/07/30 05:03:46;;;;;;;2.20;2.00;;;;;;;18.73;100.00;99936.34;5009101;28;20216;-76
2023/07/30 05:06:11;;;;;;;2.30;2.10;;;;;;;18.77;100.00;99939.66;5016438;28;20196;-76
2023/07/30 05:08:36;;;;;;;2.47;2.03;;;;;;;18.81;100.00;99944.72;5012349;28;20210;-76
2023/07/30 05:11:02;;;;;;;2.10;2.00;;;;;;;18.86;100.00;99941.84;5013384;28;20296;-76
2023/07/30 05:13:27;;;;;;;2.50;2.30;;;;;;;18.92;100.00;99948.56;5010983;28;20706;-76
2023/07/30 05:15:52;;;;;;;2.77;2.57;;;;;;;18.95;100.00;99936.19;5012539;28;20199;-76
2023/07/30 05:18:18;;;;;;;2.93;2.63;;;;;;;19.00;100.00;99931.56;5014908;28;20186;-76
2023/07/30 05:20:46;;;;;;;3.40;2.27;;;;;;;19.05;100.00;99923.47;5023666;28;20757;-77
2023/07/30 05:23:11;;;;;;;2.90;2.70;;;;;;;19.12;100.00;99924.88;5016762;28;20221;-76
2023/07/30 05:25:36;;;;;;;2.70;2.50;;;;;;;19.18;100.00;99918.47;5012436;28;20606;-76
2023/07/30 05:28:02;;;;;;;2.40;2.20;;;;;;;19.29;100.00;99933.63;5010811;28;20588;-76
2023/07/30 05:30:27;;;;;;;2.53;2.33;;;;;;;19.37;100.00;99941.97;5011105;28;20831;-76
2023/07/30 05:32:52;;;;;;;3.00;2.60;;;;;;;19.45;100.00;99929.28;5013332;28;20195;-77
2023/07/30 05:35:18;;;;;;;2.80;2.50;;;;;;;19.63;100.00;99932.75;5013952;28;20287;-77
2023/07/30 05:37:44;;;;;;;2.80;2.60;;;;;;;20.06;100.00;99927.00;5011516;28;20203;-76
2023/07/30 05:40:09;;;;;;;3.67;2.63;;;;;;;20.80;100.00;99924.69;5011577;28;20179;-77
2023/07/30 05:42:35;;;;;;;2.50;2.30;;;;;;;21.52;100.00;99925.78;5015199;28;20621;-77
2023/07/30 05:45:00;;;;;;;2.40;2.20;;;;;;;21.88;100.00;99916.59;5012605;28;20192;-75
2023/07/30 05:47:25;;;;;;;2.43;2.23;;;;;;;22.08;100.00;99913.53;5011360;28;20202;-77
2023/07/30 05:49:50;;;;;;;2.43;2.23;;;;;;;22.40;100.00;99915.09;5006538;28;20200;-75
2023/07/30 05:52:16;;;;;;;2.70;1.87;;;;;;;22.62;100.00;99918.97;5012589;28;20211;-77
2023/07/30 05:54:41;;;;;;;2.07;1.90;;;;;;;22.38;100.00;99917.81;5011592;28;20195;-76
2023/07/30 05:57:06;;;;;;;2.30;2.10;;;;;;;22.13;100.00;99923.81;5010474;28;20192;-76
2023/07/30 05:59:32;;;;;;;2.70;1.80;;;;;;;21.91;100.00;99934.84;5010275;28;20184;-77
2023/07/30 06:02:02;;;;;;;2.20;2.00;;;;;;;21.61;100.00;99946.34;5013413;28;20208;-77
2023/07/30 06:04:28;;;;;;;2.33;2.20;;;;;;;21.40;100.00;99954.53;5018273;28;20221;-77
2023/07/30 06:06:53;;;;;;;2.90;2.43;;;;;;;21.19;100.00;99958.44;5013168;28;20212;-76
2023/07/30 06:09:18;;;;;;;2.43;2.17;;;;;;;20.93;100.00;99961.66;5009972;28;20204;-76
2023/07/30 06:11:44;;;;;;;3.40;2.47;;;;;;;20.63;100.00;99962.44;5011813;28;20208;-77
2023/07/30 06:14:12;;;;;;;2.60;2.23;;;;;;;20.44;100.00;99962.59;5008916;28;20194;-77
2023/07/30 06:16:37;;;;;;;2.07;1.87;;;;;;;20.32;100.00;99960.66;5009523;28;20290;-77
2023/07/30 06:19:02;;;;;;;2.70;1.90;;;;;;;20.22;100.00;99962.94;5011032;28;20199;-76
2023/07/30 06:21:28;;;;;;;2.20;1.80;;;;;;;20.16;100.00;99971.16;5007386;28;20224;-76
2023/07/30 06:23:53;;;;;;;3.03;2.23;;;;;;;20.02;100.00;99975.41;5008364;28;20218;-76
2023/07/30 06:26:19;;;;;;;2.53;2.23;;;;;;;19.97;100.00;99977.41;5010928;28;20277;-77
2023/07/30 06:28:44;;;;;;;2.63;2.17;;;;;;;19.93;100.00;99979.34;5019272;28;20202;-76
2023/07/30 06:31:09;;;;;;;2.53;2.33;;;;;;;19.89;100.00;99982.22;5015641;28;20219;-76
2023/07/30 06:33:35;;;;;;;4.40;2.70;;;;;;;19.85;100.00;99978.88;5008766;28;20274;-76
2023/07/30 06:36:00;;;;;;;2.73;2.40;;;;;;;19.84;100.00;99982.41;5014259;28;21025;-75
2023/07/30 06:38:25;;;;;;;2.60;2.40;;;;;;;19.87;100.00;99978.84;5010590;28;20266;-75
2023/07/30 06:40:51;;;;;;;2.70;2.50;;;;;;;19.90;100.00;99979.50;5014074;28;20214;-75
2023/07/30 06:43:16;;;;;;;2.80;2.60;;;;;;;19.91;100.00;99981.22;5010789;28;20218;-75
2023/07/30 06:45:41;;;;;;;2.83;2.43;;;;;;;19.87;100.00;99992.78;5011543;28;20191;-75
2023/07/30 06:48:07;;;;;;;2.63;2.43;;;;;;;19.82;100.00;99992.16;5009529;28;20192;-76
2023/07/30 06:50:32;;;;;;;2.60;2.40;;;;;;;19.77;100.00;99997.66;5009420;28;20188;-76
2023/07/30 06:52:57;;;;;;;3.30;2.70;;;;;;;19.73;100.00;100008.38;5010372;28;20270;-76
2023/07/30 06:55:22;;;;;;;3.23;2.93;;;;;;;19.71;100.00;100013.72;5011240;28;20886;-75
2023/07/30 06:57:48;;;;;;;2.73;2.53;;;;;;;19.76;100.00;100011.69;5014576;28;20581;-76
2023/07/30 07:00:18;;;;;;;4.47;3.23;;;;;;;19.77;100.00;100016.03;5009288;28;20645;-75
2023/07/30 07:02:44;;;;;;;2.90;2.70;;;;;;;19.78;100.00;100012.47;5011893;28;20295;-76
2023/07/30 07:05:10;;;;;;;2.63;2.43;;;;;;;19.78;100.00;100009.00;5012048;28;21075;-75
2023/07/30 07:07:35;;;;;;;2.97;2.70;;;;;;;19.74;100.00;100004.84;5009332;28;20233;-75
2023/07/30 07:10:00;;;;;;;3.23;2.53;;;;;;;19.67;100.00;100009.56;5012259;28;20603;-76
2023/07/30 07:12:26;;;;;;;2.80;2.60;;;;;;;19.70;100.00;100025.16;5013484;28;20311;-76
2023/07/30 07:14:51;;;;;;;2.93;2.70;;;;;;;19.76;100.00;100027.44;5014210;28;20189;-76
2023/07/30 07:17:16;;;;;;;7.60;2.70;;;;;;;19.83;100.00;100035.03;5016032;28;20190;-77
2023/07/30 07:19:45;;;;;;;3.00;2.70;;;;;;;19.91;100.00;100038.97;5032831;28;20195;-77
2023/07/30 07:22:10;;;;;;;2.60;2.40;;;;;;;20.07;100.00;100035.56;5031026;28;20225;-76
2023/07/30 07:24:35;;;;;;;3.30;2.20;;;;;;;20.24;100.00;100034.66;5019796;28;20190;-76
2023/07/30 07:27:01;;;;;;;2.90;2.70;;;;;;;20.41;100.00;100026.72;5016875;28;20648;-77
2023/07/30 07:29:26;;;;;;;3.40;2.70;;;;;;;20.70;100.00;100034.78;5013554;28;20188;-77
2023/07/30 07:31:51;;;;;;;2.33;2.23;;;;;;;20.99;100.00;100032.31;5017955;28;21107;-76
2023/07/30 07:34:16;;;;;;;2.50;2.30;;;;;;;21.12;100.00;100029.84;5017219;28;20196;-76
2023/07/30 07:36:42;;;;;;;2.43;2.23;;;;;;;21.19;100.00;100034.75;5032126;28;20184;-76
2023/07/30 07:39:07;;;;;;;2.60;2.40;;;;;;;21.24;100.00;100035.34;5023351;28;20733;-76
2023/07/30 07:41:33;;;;;;;2.30;2.10;;;;;;;21.40;100.00;100033.50;5019391;28;20200;-77
2023/07/30 07:43:58;;;;;;;2.33;2.13;;;;;;;21.71;100.00;100033.50;5019551;28;20199;-76
2023/07/30 07:46:24;;;;;;;2.30;2.10;;;;;;;22.29;100.00;100017.72;5020570;28;20180;-77
2023/07/30 07:48:49;;;;;;;2.67;2.23;;;;;;;22.96;100.00;100025.78;5023413;28;20183;-77
2023/07/30 07:51:18;;;;;;;1.90;1.80;;;;;;;23.57;100.00;100027.97;5023165;28;20212;-76
2023/07/30 07:53:43;;;;;;;2.63;2.10;;;;;;;24.25;100.00;100018.97;5026070;28;20970;-76
2023/07/30 07:56:08;;;;;;;2.30;2.10;;;;;;;24.54;100.00;100016.91;5022284;28;20183;-75
2023/07/30 07:58:35;;;;;;;3.33;2.00;;;;;;;24.37;100.00;100018.09;5020755;28;20245;-76
2023/07/30 08:01:00;;;;;;;1.73;1.63;;;;;;;24.04;100.00;100025.69;5016468;28;20235;-79
2023/07/30 08:03:28;;;;;;;3.27;2.07;;;;;;;23.73;100.00;100029.56;5013383;28;20660;-78
2023/07/30 08:05:57;;;;;;;1.90;1.80;;;;;;;23.86;100.00;100038.34;5018469;28;20184;-78
2023/07/30 08:08:25;;;;;;;2.13;1.77;;;;;;;23.89;100.00;100038.16;5018115;28;20206;-78
2023/07/30 08:10:50;;;;;;;2.47;1.73;;;;;;;23.88;100.00;100044.38;5021315;28;20210;-77
2023/07/30 08:13:15;;;;;;;2.13;1.93;;;;;;;23.66;100.00;100042.34;5013865;28;20180;-77
2023/07/30 08:15:41;;;;;;;2.40;2.20;;;;;;;23.60;100.00;100048.03;5021450;28;20809;-77
2023/07/30 08:18:06;;;;;;;2.30;2.10;;;;;;;23.58;100.00;100042.88;5019329;28;20191;-77
2023/07/30 08:20:31;;;;;;;2.17;1.97;;;;;;;23.74;100.00;100040.03;5017134;28;20227;-78
2023/07/30 08:22:57;;;;;;;2.37;1.63;;;;;;;23.99;100.00;100048.09;5019891;28;20219;-78
2023/07/30 08:25:22;;;;;;;2.73;1.97;;;;;;;24.28;100.00;100050.50;5012685;28;20187;-77
2023/07/30 08:27:47;;;;;;;3.57;2.10;;;;;;;24.16;100.00;100041.63;5018862;28;20651;-77
2023/07/30 08:30:13;;;;;;;2.17;1.97;;;;;;;24.01;100.00;100047.03;5017135;28;20207;-78
2023/07/30 08:32:38;;;;;;;2.90;1.83;;;;;;;24.04;100.00;100054.75;5017795;28;20249;-77
2023/07/30 08:35:04;;;;;;;3.87;2.03;;;;;;;24.05;100.00;100055.59;5015076;28;20198;-77
2023/07/30 08:37:30;;;;;;;2.47;1.90;;;;;;;24.07;100.00;100056.31;5011781;28;20211;-78
2023/07/30 08:39:58;;;;;;;2.33;2.10;;;;;;;24.22;100.00;100053.56;5016801;28;20180;-77
2023/07/30 08:42:24;;;;;;;1.87;1.77;;;;;;;24.34;100.00;100050.09;5018307;28;22030;-78
2023/07/30 08:44:49;;;;;;;3.03;1.97;;;;;;;24.41;100.00;100061.91;5021855;28;20219;-79
2023/07/30 08:47:15;;;;;;;2.37;1.90;;;;;;;24.43;99.47;100054.72;5013370;28;20199;-77
2023/07/30 08:49:40;;;;;;;1.93;1.80;;;;;;;24.25;97.92;100061.28;5015263;28;20184;-78
2023/07/30 08:52:09;;;;;;;2.10;2.00;;;;;;;23.97;97.80;100060.56;5014059;28;20215;-78
2023/07/30 08:54:36;;;;;;;2.87;2.20;;;;;;;23.78;98.40;100069.72;5009199;28;20184;-76
2023/07/30 08:57:01;;;;;;;3.20;2.03;;;;;;;23.66;99.17;100074.06;5011606;28;20203;-76
2023/07/30 08:59:31;;;;;;;3.33;2.10;;;;;;;23.56;98.96;100078.25;5010226;28;20187;-76
2023/07/30 09:01:58;;;;;;;4.53;2.40;;;;;;;23.55;99.02;100069.50;5013259;28;20211;-77
2023/07/30 09:04:24;;;;;;;2.40;2.20;;;;;;;23.61;97.25;100073.50;5012104;28;20723;-78
2023/07/30 09:06:50;;;;;;;2.17;1.97;;;;;;;23.77;95.54;100075.94;5013917;28;20245;-78
2023/07/30 09:09:15;;;;;;;3.57;2.30;;;;;;;23.72;93.80;100068.34;5013266;28;20198;-77
2023/07/30 09:11:40;;;;;;;3.43;2.67;;;;;;;23.93;96.11;100074.91;5035593;28;20207;-76
2023/07/30 09:14:07;;;;;;;3.13;1.97;;;;;;;24.17;94.73;100067.13;5014895;28;20580;-76
2023/07/30 09:16:32;;;;;;;3.87;2.73;;;;;;;24.49;91.69;100067.50;5015577;28;20194;-76
2023/07/30 09:18:58;;;;;;;2.17;1.97;;;;;;;24.59;91.24;100075.59;5035820;28;20176;-76
2023/07/30 09:21:30;;;;;;;2.63;2.40;;;;;;;24.76;91.36;100079.75;5032283;28;20635;-76
2023/07/30 09:23:56;;;;;;;2.30;2.03;;;;;;;24.78;91.97;100085.78;5014181;28;20200;-77
2023/07/30 09:26:22;;;;;;;3.33;2.30;;;;;;;25.04;92.33;100085.66;5014305;28;20547;-76
2023/07/30 09:28:47;;;;;;;2.40;2.20;;;;;;;25.20;92.00;100089.84;5012089;28;20194;-76
2023/07/30 09:31:12;;;;;;;2.73;2.00;;;;;;;25.32;90.62;100088.91;5016517;28;20233;-77
2023/07/30 09:33:41;;;;;;;3.40;2.30;;;;;;;25.36;88.91;100086.88;5032989;28;20237;-76
2023/07/30 09:36:10;;;;;;;4.00;2.20;;;;;;;25.53;89.22;100094.44;5017543;28;20682;-77
2023/07/30 09:38:44;;;;;;;2.93;2.20;;;;;;;25.58;88.30;100102.03;5018864;28;20196;-76
2023/07/30 09:41:12;;;;;;;2.60;2.00;;;;;;;25.63;87.81;100089.31;5019661;28;20256;-77
2023/07/30 09:43:37;;;;;;;2.37;2.10;;;;;;;25.66;84.26;100091.72;5016511;28;20230;-77
2023/07/30 09:46:04;;;;;;;2.37;2.17;;;;;;;25.72;84.11;100088.59;5016902;28;20187;-76
2023/07/30 09:48:31;;;;;;;3.53;2.40;;;;;;;25.65;84.09;100084.75;5017042;28;20252;-74
2023/07/30 09:51:08;;;;;;;2.63;2.40;;;;;;;25.53;84.33;100102.41;5012970;28;20223;-78
2023/07/30 09:53:36;;;;;;;3.30;2.40;;;;;;;25.20;84.36;100101.25;5015202;28;20176;-74
2023/07/30 09:56:03;;;;;;;2.47;2.10;;;;;;;24.83;86.15;100106.59;5012035;28;20192;-76
2023/07/30 09:58:29;;;;;;;2.03;1.93;;;;;;;24.35;87.27;100105.50;5013961;28;20348;-75
2023/07/30 10:00:58;;;;;;;2.60;2.03;;;;;;;24.08;89.00;100112.69;5015257;28;21242;-75
2023/07/30 10:03:24;;;;;;;2.80;2.60;;;;;;;23.79;90.36;100116.31;5014837;28;20209;-77
2023/07/30 10:05:51;;;;;;;2.87;2.10;;;;;;;23.55;91.46;100124.09;5013669;28;20190;-75
2023/07/30 10:08:23;;;;;;;2.20;2.00;;;;;;;23.31;92.33;100127.41;5014927;28;20188;-75
2023/07/30 10:10:49;;;;;;;2.10;1.90;;;;;;;23.08;94.02;100139.41;5014607;28;20231;-77
2023/07/30 10:13:16;;;;;;;2.37;2.10;;;;;;;22.91;95.13;100138.69;5016277;28;20569;-76
2023/07/30 10:15:46;;;;;;;2.40;2.20;;;;;;;22.79;96.28;100147.41;5014963;28;20199;-74
2023/07/30 10:18:11;;;;;;;2.50;2.23;;;;;;;22.68;97.06;100148.91;5015790;28;20279;-74
2023/07/30 10:20:37;;;;;;;2.50;2.23;;;;;;;22.64;98.16;100155.31;5018004;28;20629;-75
2023/07/30 10:23:05;;;;;;;3.17;2.27;;;;;;;22.66;98.84;100152.56;5014967;28;20210;-76
2023/07/30 10:25:49;;;;;;;2.20;2.00;;;;;;;22.84;99.25;100154.06;5015131;28;20188;-74
2023/07/30 10:28:27;;;;;;;2.03;1.83;;;;;;;23.03;99.32;100154.69;5017061;28;21444;-75
2023/07/30 10:31:03;;;;;;;2.70;1.90;;;;;;;23.23;98.65;100164.00;5011874;28;20212;-75
2023/07/30 10:33:50;;;;;;;2.23;1.93;;;;;;;23.50;98.02;100164.03;5012833;28;20207;-76
2023/07/30 10:36:41;;;;;;;3.13;1.97;;;;;;;23.71;96.24;100166.22;5013072;28;20245;-75
2023/07/30 10:39:17;;;;;;;1.90;1.70;;;;;;;23.92;95.46;100166.56;5010676;28;20211;-76
2023/07/30 10:41:48;;;;;;;2.87;1.90;;;;;;;24.02;97.15;100150.97;5010471;28;21156;-75
2023/07/30 10:44:31;;;;;;;2.43;1.90;;;;;;;24.42;94.38;100147.41;5015937;28;20285;-75
2023/07/30 10:46:59;;;;;;;4.00;2.47;;;;;;;24.71;93.21;100149.81;5018025;28;20653;-75
2023/07/30 10:49:25;;;;;;;2.63;1.90;;;;;;;24.91;92.68;100156.34;5014354;28;20202;-77
2023/07/30 10:51:57;;;;;;;2.50;2.07;;;;;;;24.89;95.87;100164.38;5015656;28;20691;-76
2023/07/30 10:54:22;;;;;;;1.97;1.80;;;;;;;25.30;93.25;100154.41;5014012;28;20184;-76
2023/07/30 10:56:48;;;;;;;2.90;1.77;;;;;;;25.34;89.88;100150.56;5012205;28;20191;-75
2023/07/30 10:59:14;;;;;;;1.73;1.63;;;;;;;25.45;88.30;100154.25;5012793;28;22199;-75
2023/07/30 11:01:42;;;;;;;2.07;1.73;;;;;;;25.17;84.14;100165.06;5012912;28;20982;-75
2023/07/30 11:04:17;;;;;;;1.80;1.60;;;;;;;24.88;83.61;100170.63;5013529;28;20208;-76
2023/07/30 11:06:50;;;;;;;4.83;1.47;;;;;;;24.85;82.16;100162.06;5013472;28;20191;-75
2023/07/30 11:09:27;;;;;;;1.97;1.50;;;;;;;24.82;82.00;100165.78;5008554;28;20548;-76
2023/07/30 11:11:55;;;;;;;2.73;1.97;;;;;;;24.71;82.24;100165.69;5014542;28;20706;-76
2023/07/30 11:14:22;;;;;;;1.93;1.50;;;;;;;24.72;81.19;100168.22;5016225;28;20181;-76
2023/07/30 11:16:58;;;;;;;1.47;1.20;;;;;;;24.78;79.77;100159.88;5018470;28;20196;-75
2023/07/30 11:19:24;;;;;;;2.93;1.70;;;;;;;24.91;80.10;100170.41;5031824;28;20187;-74
2023/07/30 11:21:51;;;;;;;2.07;1.20;;;;;;;25.06;78.99;100170.25;5021650;28;20308;-75